• Join FlightAware (Why Join?)
  • Login
  • US Flag 
02:44AM EDT


 

Airport Tracker/Info


-or-


 

Live Flight TrackerFlight Track Log ✈ N143DE ✈ 09-May-2013 ✈ KGPT - KAPF

Flight Track Log - Related Links

Times and Time Zones

All times are in EDT time to prevent confusion due to time zone crossing. See the N143DE flight status page for this flight to view local times or setup timezone preferences in your user account.

Time Position Orientation Groundspeed Altitude Reporting Facility
EDT Latitude Longitude Course Direction KTS MPH feet Rate Location/Type
09:34AM 30.3728 -88.9906 60° Northeast 193 222 2,600  Level Houston Center
09:35AM 30.3956 -88.9267 68° East 201 231 5,000 2,220 Climbing Houston Center
09:36AM 30.4217 -88.8797 57° Northeast 180 207 7,200 1,920 Climbing Houston Center
09:37AM 30.4475 -88.8306 59° Northeast 178 205 9,000 1,620 Climbing Houston Center
09:38AM 30.5581 -88.6923 64° Northeast  Level FlightAware Approximate
09:38AM 30.4775 -88.7817 55° Northeast 184 212 10,600  Level Houston Center
09:39AM 30.5912 -88.6177 60° Northeast  Level FlightAware Approximate
09:39AM 30.5106 -88.7256 56° Northeast 208 239 11,600  Level Houston Center
09:40AM 30.5472 -88.6622 56° Northeast 199 229 14,200 2,040 Climbing Houston Center
09:41AM 30.5750 -88.6153 55° Northeast 181 208 15,900 1,500 Climbing Houston Center
09:42AM 30.6017 -88.5669 57° Northeast 178 205 17,300 1,260 Climbing Houston Center
09:43AM 30.6306 -88.5183 55° Northeast 182 209 18,500 1,200 Climbing Houston Center
09:44AM 30.6589 -88.4681 57° Northeast 186 214 19,800 1,200 Climbing Houston Center
09:45AM 30.6886 -88.4164 56° Northeast 191 220 21,100 1,260 Climbing Houston Center
09:46AM 30.7244 -88.3533 57° Northeast 194 223 22,500 1,140 Climbing Houston Center
09:47AM 30.7319 -88.2869 82° East 205 236 23,500 840 Climbing Houston Center
09:48AM 30.7358 -88.2189 86° East 216 249 24,300 720 Climbing Houston Center
09:49AM 30.7397 -88.1469 86° East 222 255 25,100 360 Climbing Houston Center
09:50AM 30.7439 -88.0681 86° East 240 276 25,100  Level Houston Center
09:51AM 30.7489 -87.9650 87° East 262 302 25,100  Level Houston Center
09:52AM 30.7533 -87.8756 87° East 272 313 25,100  Level Houston Center
09:53AM 30.7594 -87.7803 86° East 269 310 25,100  Level Jacksonville Center
09:54AM 30.7669 -87.6911 84° East 274 315 25,100  Level Jacksonville Center
09:55AM 30.7725 -87.5997 86° East 274 315 25,100  Level Jacksonville Center
09:56AM 30.7714 -87.5125 91° East 274 315 25,100  Level Jacksonville Center
09:57AM 30.7475 -87.4219 107° East 274 315 25,100  Level Jacksonville Center
09:58AM 30.7236 -87.3339 107° East 286 329 25,100  Level Jacksonville Center
09:59AM 30.7014 -87.2483 107° East 286 329 25,100  Level Jacksonville Center
10:00AM 30.6814 -87.1606 105° East 286 329 25,100  Level Jacksonville Center
10:01AM 30.6592 -87.0750 107° East 286 329 25,100  Level Jacksonville Center
10:02AM 30.6392 -86.9872 105° East 286 329 25,100  Level Jacksonville Center
10:03AM 30.6128 -86.8992 109° East 286 329 25,100  Level Jacksonville Center
10:04AM 30.5903 -86.8161 107° East 286 329 25,100  Level Jacksonville Center
10:05AM 30.5719 -86.7286 104° East 286 329 25,100  Level Jacksonville Center
10:06AM 30.5494 -86.6433 107° East 286 329 25,100  Level Jacksonville Center
10:07AM 30.5292 -86.5581 105° East 280 322 25,100  Level Jacksonville Center
10:08AM 30.5064 -86.4753 108° East 274 315 25,100  Level Jacksonville Center
10:09AM 30.4858 -86.3900 106° East 274 315 25,100  Level Jacksonville Center
10:10AM 30.4650 -86.3050 106° East 269 310 25,100  Level Jacksonville Center
10:11AM 30.4422 -86.2222 108° East 264 304 25,100  Level Jacksonville Center
10:12AM 30.4194 -86.1397 108° East 264 304 25,100  Level Jacksonville Center
10:13AM 30.3986 -86.0522 105° East 269 310 25,100  Level Jacksonville Center
10:14AM 30.3775 -85.9697 107° East 269 310 25,100  Level Jacksonville Center
10:15AM 30.3567 -85.8872 106° East 264 304 25,100  Level Jacksonville Center
10:16AM 30.3336 -85.8022 107° East 264 304 25,100  Level Jacksonville Center
10:17AM 30.3103 -85.7172 108° East 264 304 25,100  Level Jacksonville Center
10:18AM 30.2931 -85.6494 106° East 264 304 25,100  Level Jacksonville Center
10:19AM 30.2700 -85.5575 106° East 264 304 25,100  Level Jacksonville Center
10:20AM 30.2447 -85.4678 108° East 264 304 25,100  Level Jacksonville Center
10:21AM 30.2253 -85.3903 106° East 270 311 25,100  Level Jacksonville Center
10:22AM 30.2039 -85.3081 107° East 270 311 25,100  Level Jacksonville Center
10:23AM 30.1806 -85.2233 108° East 270 311 25,100  Level Jacksonville Center
10:24AM 30.1569 -85.1386 108° East 270 311 25,100  Level Jacksonville Center
10:25AM 30.1356 -85.0542 106° East 270 311 25,100  Level Jacksonville Center
10:26AM 30.1139 -84.9697 107° East 270 311 25,100  Level Jacksonville Center
10:27AM 30.0903 -84.8828 107° East 270 311 25,100  Level Jacksonville Center
10:28AM 30.0686 -84.8031 107° East 265 305 25,100  Level Jacksonville Center
10:29AM 30.0467 -84.7164 106° East 265 305 25,100  Level Jacksonville Center
10:30AM 30.0231 -84.6319 108° East 265 305 25,100  Level Jacksonville Center
10:31AM 30.0011 -84.5500 107° East 265 305 25,100  Level Jacksonville Center
10:32AM 29.9769 -84.4656 108° East 265 305 25,100  Level Jacksonville Center
10:33AM 29.9531 -84.3836 109° East 265 305 25,100  Level Jacksonville Center
10:34AM 29.9311 -84.2994 107° East 265 305 25,100  Level Jacksonville Center
10:35AM 29.9089 -84.2153 107° East 270 311 25,100  Level Jacksonville Center
10:36AM 29.8847 -84.1264 107° East 265 305 25,100  Level Jacksonville Center
10:37AM 29.8606 -84.0422 108° East 265 305 25,100  Level Jacksonville Center
10:38AM 29.8383 -83.9581 107° East 265 305 25,100  Level Jacksonville Center
10:39AM 29.7992 -83.8858 122° Southeast 265 305 25,100  Level Jacksonville Center
10:40AM 29.7369 -83.8350 145° Southeast 257 296 25,100  Level Jacksonville Center
10:41AM 29.6683 -83.7936 152° Southeast 267 307 25,100  Level Jacksonville Center
10:42AM 29.6017 -83.7547 153° Southeast 267 307 25,100  Level Jacksonville Center
10:43AM 29.5331 -83.7136 152° Southeast 267 307 25,100  Level Jacksonville Center
10:44AM 29.4686 -83.6703 150° Southeast 272 313 25,100  Level Jacksonville Center
10:45AM 29.4022 -83.6267 150° Southeast 272 313 25,100  Level Jacksonville Center
10:46AM 29.3356 -83.5833 150° Southeast 272 313 25,100  Level Jacksonville Center
10:47AM 29.2692 -83.5425 152° Southeast 272 313 25,100  Level Jacksonville Center
10:48AM 29.2044 -83.4992 150° Southeast 272 313 25,100  Level Jacksonville Center
10:49AM 29.1381 -83.4583 152° Southeast 266 306 25,100  Level Jacksonville Center
10:50AM 29.0714 -83.4175 152° Southeast 266 306 25,100  Level Jacksonville Center
10:51AM 29.0025 -83.3722 150° Southeast 266 306 25,100  Level Jacksonville Center
10:52AM 28.9381 -83.3339 152° Southeast 266 306 25,200  Climbing Jacksonville Center
10:53AM 28.8714 -83.2908 151° Southeast 261 300 25,200  Level Jacksonville Center
10:54AM 28.8067 -83.2481 150° Southeast 266 306 25,200  Level Jacksonville Center
10:55AM 28.7381 -83.2075 153° Southeast 266 306 25,200 -120 Level Jacksonville Center
10:56AM 28.6733 -83.1622 148° Southeast 266 306 25,000  Descending Jacksonville Center
10:57AM 28.6067 -83.1219 152° Southeast 266 306 25,200 60 Climbing Jacksonville Center
10:58AM 28.5400 -83.0817 152° Southeast 266 306 25,200  Level Jacksonville Center
10:59AM 28.4733 -83.0389 151° Southeast 266 306 25,200  Level Jacksonville Center
11:00AM 28.4128 -83.0036 153° Southeast 261 300 25,200  Level Jacksonville Center
11:01AM 28.3461 -82.9586 149° Southeast 266 306 25,200  Level Jacksonville Center
11:02AM 28.2792 -82.9186 152° Southeast 266 306 25,200  Level Jacksonville Center
11:03AM 28.2119 -82.8778 152° Southeast 262 302 25,200  Level Miami Center
11:04AM 28.1428 -82.8364 152° Southeast 268 308 25,200  Level Miami Center
11:05AM 28.0778 -82.7931 150° Southeast 273 314 25,200  Level Miami Center
11:06AM 28.0089 -82.7469 149° Southeast 281 323 25,200  Level Miami Center
11:07AM 27.9417 -82.7083 153° Southeast 281 323 25,200  Level Miami Center
11:08AM 27.8719 -82.6767 158° South 271 312 25,200  Level Miami Center
11:09AM 27.8036 -82.6636 170° South 270 311 25,200 -240 Level Miami Center
11:10AM 27.7333 -82.6461 168° South 275 316 24,800 -900 Descending Miami Center
11:11AM 27.6486 -82.6253 168° South 286 329 23,500 -1,200 Descending Miami Center
11:12AM 27.5661 -82.6047 168° South 302 348 22,500 -900 Descending Miami Center
11:13AM 27.4897 -82.5847 167° South 295 339 21,700 -900 Descending Miami Center
11:14AM 27.4194 -82.5669 167° South 282 325 20,800 -960 Descending Miami Center
11:15AM 27.3347 -82.5464 168° South 287 330 19,800 -1,080 Descending Miami Center
11:16AM 27.2603 -82.5289 168° South 287 330 18,700 -1,020 Descending Miami Center
11:17AM 27.1881 -82.5114 168° South 287 330 17,800 -960 Descending Miami Center
11:18AM 27.1114 -82.4936 168° South 287 330 16,800 -1,200 Descending Miami Center
11:19AM 27.0350 -82.4736 167° South 287 330 15,400 -1,260 Descending Miami Center
11:20AM 26.9625 -82.4561 168° South 277 319 14,300 -1,140 Descending Miami Center
11:21AM 26.8922 -82.4386 167° South 272 313 13,200 -1,140 Descending Miami Center
11:22AM 26.8200 -82.4214 168° South 272 313 12,100 -1,020 Descending Miami Center
11:23AM 26.7519 -82.4019 166° South 267 307 11,200 -1,080 Descending Miami Center
11:24AM 26.6856 -82.3894 170° South 255 293 10,000 -840 Descending Miami Center
11:25AM 26.6258 -82.3703 164° South 245 282 9,600 -780 Descending Miami Center
11:26AM 26.5728 -82.3353 149° Southeast 226 260 8,500 -1,080 Descending Miami Center
11:27AM 26.5181 -82.2886 143° Southeast 231 266 7,500 -1,020 Descending Miami Center
11:28AM 26.4653 -82.2514 148° Southeast 241 277 6,500 -1,080 Descending Miami Center
11:29AM 26.4128 -82.2050 142° Southeast 241 277 5,400 -1,140 Descending Miami Center
11:31AM 26.3555 -82.1102 124° Southeast  Level Estimated
11:38AM 26.1524 -81.7756 130° Southeast  Level Estimated
11:39AM 26.1524 -81.7756 130° Southeast  Level Estimated
11:40AM 26.1524 -81.7756 130° Southeast  Level Estimated
11:41AM 26.1524 -81.7756 130° Southeast  Level Estimated
11:42AM 26.1524 -81.7756 130° Southeast  Level Estimated
11:43AM 26.1524 -81.7756 130° Southeast  Level Estimated